createdAt,value
2023-03-26T00:00:48.704Z,53.84
2023-03-26T00:04:13.496Z,53.84
2023-03-26T00:07:16.726Z,53.36
2023-03-26T00:10:19.848Z,53.61
2023-03-26T00:13:22.502Z,54.02
2023-03-26T00:16:29.744Z,53.91
2023-03-26T00:19:32.551Z,54.02
2023-03-26T00:22:35.632Z,53.22
2023-03-26T00:25:41.619Z,53.38
2023-03-26T00:28:44.738Z,53.45
2023-03-26T00:31:47.319Z,52.72
2023-03-26T00:34:52.056Z,52.71
2023-03-26T00:37:54.772Z,52.54
2023-03-26T00:41:06.238Z,52.70
2023-03-26T00:44:09.723Z,53.03
2023-03-26T00:47:13.355Z,53.20
2023-03-26T00:50:16.395Z,54.35
2023-03-26T00:53:20.139Z,53.58
2023-03-26T00:56:22.859Z,53.66
2023-03-26T00:59:30.477Z,53.72
2023-03-26T01:02:33.286Z,54.13
2023-03-26T01:05:44.422Z,53.86
2023-03-26T01:08:52.940Z,53.78
2023-03-26T01:11:56.218Z,54.93
2023-03-26T01:15:01.425Z,54.51
2023-03-26T01:18:09.888Z,53.73
2023-03-26T01:21:13.959Z,53.97
2023-03-26T01:24:17.115Z,53.86
2023-03-26T01:27:24.410Z,53.68
2023-03-26T01:30:38.798Z,53.12
2023-03-26T01:33:41.613Z,52.70
2023-03-26T01:36:50.798Z,54.20
2023-03-26T01:39:57.609Z,53.08
2023-03-26T01:43:11.226Z,53.56
2023-03-26T01:46:16.542Z,53.36
2023-03-26T01:49:20.573Z,54.00
2023-03-26T01:52:26.115Z,53.21
2023-03-26T01:55:54.009Z,53.52
2023-03-26T01:59:20.141Z,53.82
2023-03-26T02:03:02.184Z,53.16
2023-03-26T02:06:16.402Z,52.95
2023-03-26T02:09:25.057Z,52.91
2023-03-26T02:12:29.625Z,52.90
2023-03-26T02:15:33.173Z,54.31
2023-03-26T02:18:41.765Z,54.19
2023-03-26T02:21:46.031Z,53.58
2023-03-26T02:24:48.792Z,53.49
2023-03-26T02:27:53.151Z,53.39
2023-03-26T02:30:57.723Z,52.75
2023-03-26T02:34:00.902Z,52.61
2023-03-26T02:37:03.933Z,53.54
2023-03-26T02:40:11.327Z,53.53
2023-03-26T02:43:14.174Z,53.52
2023-03-26T02:46:19.466Z,53.63
2023-03-26T02:49:23.693Z,53.63
2023-03-26T02:52:27.513Z,53.86
2023-03-26T02:55:31.390Z,54.50
2023-03-26T02:58:35.773Z,54.38
2023-03-26T03:01:42.782Z,53.97
2023-03-26T03:04:46.215Z,53.86
2023-03-26T03:07:48.818Z,54.88
2023-03-26T03:11:02.730Z,55.07
2023-03-26T03:14:05.641Z,55.39
2023-03-26T03:17:08.761Z,55.34
2023-03-26T03:20:12.027Z,56.46
2023-03-26T03:23:16.061Z,56.35
2023-03-26T03:26:23.194Z,56.57
2023-03-26T03:29:26.474Z,56.57
2023-03-26T03:32:29.816Z,56.59
2023-03-26T03:35:33.772Z,56.53
2023-03-26T03:38:41.481Z,55.97
2023-03-26T03:41:44.814Z,56.04
2023-03-26T03:44:47.862Z,56.55
2023-03-26T03:47:53.245Z,56.13
2023-03-26T03:50:57.019Z,56.16
2023-03-26T03:54:00.498Z,55.08
2023-03-26T03:57:03.667Z,53.69
2023-03-26T04:00:09.178Z,53.90
2023-03-26T04:03:19.579Z,54.47
2023-03-26T04:06:38.784Z,54.38
2023-03-26T04:09:41.711Z,54.56
2023-03-26T04:12:45.722Z,54.29
2023-03-26T04:15:48.990Z,54.56
2023-03-26T04:18:52.060Z,55.00
2023-03-26T04:21:54.541Z,55.97
2023-03-26T04:24:57.646Z,55.62
2023-03-26T04:28:06.532Z,56.90
2023-03-26T04:31:15.794Z,56.08
2023-03-26T04:34:26.686Z,55.71
2023-03-26T04:37:36.617Z,56.95
2023-03-26T04:40:39.867Z,56.69
2023-03-26T04:43:47.392Z,57.50
2023-03-26T04:46:52.974Z,55.36
2023-03-26T04:49:56.552Z,55.79
2023-03-26T04:52:59.420Z,56.46
2023-03-26T04:56:33.731Z,55.09
2023-03-26T04:59:41.446Z,56.08
2023-03-26T05:02:46.488Z,56.72
2023-03-26T05:05:49.823Z,55.59
2023-03-26T05:08:52.947Z,54.14
2023-03-26T05:11:58.413Z,54.68
2023-03-26T05:15:01.719Z,53.39
2023-03-26T05:18:05.050Z,52.46
2023-03-26T05:21:08.710Z,53.98
2023-03-26T05:24:11.385Z,53.68
2023-03-26T05:27:20.264Z,53.43
2023-03-26T05:30:23.042Z,53.38
2023-03-26T05:33:26.390Z,53.09
2023-03-26T05:36:29.853Z,53.18
2023-03-26T05:39:35.603Z,53.19
2023-03-26T05:42:40.653Z,53.09
2023-03-26T05:45:47.342Z,52.43
2023-03-26T05:48:52.104Z,52.83
2023-03-26T05:51:55.637Z,52.79
2023-03-26T05:54:59.742Z,50.29
2023-03-26T05:58:15.499Z,49.96
2023-03-26T06:01:26.454Z,48.64
2023-03-26T06:04:32.894Z,49.12
2023-03-26T06:07:36.158Z,50.73
2023-03-26T06:10:39.581Z,49.09
2023-03-26T06:13:42.769Z,50.01
2023-03-26T06:16:46.579Z,49.39
2023-03-26T06:19:49.484Z,49.62
2023-03-26T06:22:53.459Z,49.44
2023-03-26T06:25:56.828Z,48.54
2023-03-26T06:29:00.598Z,50.05
2023-03-26T06:32:16.297Z,49.04
2023-03-26T06:35:22.767Z,48.50
2023-03-26T06:38:25.450Z,47.45
2023-03-26T06:41:29.840Z,49.43
2023-03-26T06:44:32.675Z,48.33
2023-03-26T06:47:38.352Z,46.83
2023-03-26T06:50:42.972Z,47.89
2023-03-26T06:53:46.377Z,46.71
2023-03-26T06:56:51.540Z,45.79
2023-03-26T06:59:55.236Z,44.13
2023-03-26T07:03:06.231Z,42.70
2023-03-26T07:06:19.725Z,44.99
2023-03-26T07:09:25.576Z,42.27
2023-03-26T07:12:29.943Z,42.50
2023-03-26T07:15:32.891Z,43.39
2023-03-26T07:18:37.877Z,39.80
2023-03-26T07:21:42.198Z,40.70
2023-03-26T07:24:46.403Z,38.32
2023-03-26T07:27:59.193Z,36.85
2023-03-26T07:31:14.686Z,36.39
2023-03-26T07:34:46.226Z,36.29
2023-03-26T07:38:06.276Z,35.86
2023-03-26T07:41:14.045Z,35.69
2023-03-26T07:44:58.956Z,35.26
2023-03-26T07:48:04.555Z,35.26
2023-03-26T07:51:08.559Z,36.60
2023-03-26T07:54:14.292Z,35.52
2023-03-26T07:57:38.648Z,34.39
2023-03-26T08:00:52.416Z,34.24
2023-03-26T08:04:24.950Z,33.99
2023-03-26T08:07:51.644Z,35.47
2023-03-26T08:11:12.750Z,35.43
2023-03-26T08:14:35.528Z,36.38
2023-03-26T08:18:00.196Z,35.16
2023-03-26T08:21:14.286Z,35.14
2023-03-26T08:24:22.954Z,35.49
2023-03-26T08:27:40.339Z,37.94
2023-03-26T08:30:44.095Z,36.63
2023-03-26T08:33:46.857Z,35.43
2023-03-26T08:36:49.964Z,36.24
2023-03-26T08:39:52.745Z,37.45
2023-03-26T08:43:26.818Z,37.91
2023-03-26T08:47:03.559Z,39.07
2023-03-26T08:50:09.832Z,40.21
2023-03-26T08:53:39.439Z,40.61
2023-03-26T08:57:18.534Z,44.79
2023-03-26T09:00:45.528Z,40.65
2023-03-26T09:04:26.199Z,39.96
2023-03-26T09:08:05.423Z,38.86
2023-03-26T09:11:47.425Z,37.62
2023-03-26T09:15:28.514Z,35.71
2023-03-26T09:18:50.771Z,35.84
2023-03-26T09:22:30.415Z,35.17
2023-03-26T09:26:12.194Z,34.09
2023-03-26T09:29:32.799Z,34.04
2023-03-26T09:33:22.975Z,34.81
2023-03-26T09:37:05.901Z,36.09
2023-03-26T09:40:19.156Z,34.74
2023-03-26T09:43:46.390Z,35.46
2023-03-26T09:47:14.358Z,33.99
2023-03-26T09:50:37.257Z,33.76
2023-03-26T09:53:59.071Z,33.78
2023-03-26T09:57:13.335Z,32.18
2023-03-26T10:00:42.857Z,31.45
2023-03-26T10:03:57.992Z,28.68
2023-03-26T10:07:22.322Z,27.62
2023-03-26T10:10:52.224Z,26.17
2023-03-26T10:14:05.665Z,26.97
2023-03-26T10:17:27.210Z,27.61
2023-03-26T10:21:13.834Z,28.38
2023-03-26T10:24:22.555Z,29.92
2023-03-26T10:27:39.967Z,30.87
2023-03-26T10:31:01.330Z,32.96
2023-03-26T10:34:28.134Z,34.27
2023-03-26T10:37:41.145Z,36.70
2023-03-26T10:40:50.629Z,41.34
2023-03-26T10:44:09.172Z,43.69
2023-03-26T10:47:35.407Z,47.73
2023-03-26T10:50:57.382Z,48.78
2023-03-26T10:54:27.178Z,46.90
2023-03-26T10:57:41.264Z,44.36
2023-03-26T11:00:52.556Z,38.87
2023-03-26T11:04:10.955Z,38.82
2023-03-26T11:07:39.978Z,38.41
2023-03-26T11:10:45.833Z,37.50
2023-03-26T11:14:07.068Z,37.91
2023-03-26T11:17:47.914Z,38.14
2023-03-26T11:21:19.510Z,39.63
2023-03-26T11:24:45.353Z,40.78
2023-03-26T11:28:09.330Z,40.40
2023-03-26T11:31:19.804Z,39.24
2023-03-26T11:34:31.154Z,38.21
2023-03-26T11:37:43.630Z,36.95
2023-03-26T11:40:51.017Z,37.46
2023-03-26T11:44:03.968Z,38.49
2023-03-26T11:47:10.670Z,36.56
2023-03-26T11:50:20.683Z,36.81
2023-03-26T11:53:29.221Z,32.92
2023-03-26T11:56:37.035Z,32.07
2023-03-26T11:59:56.246Z,32.04
2023-03-26T12:03:00.486Z,31.87
2023-03-26T12:06:04.766Z,31.38
2023-03-26T12:09:20.133Z,35.44
2023-03-26T12:12:46.041Z,32.55
2023-03-26T12:15:49.536Z,33.67
2023-03-26T12:19:18.562Z,32.68
2023-03-26T12:22:36.484Z,32.29
2023-03-26T12:25:39.921Z,33.50
2023-03-26T12:28:46.501Z,32.28
2023-03-26T12:32:07.298Z,32.49
2023-03-26T12:35:26.788Z,32.15
2023-03-26T12:38:33.416Z,31.59
2023-03-26T12:44:44.625Z,32.63
2023-03-26T12:45:06.889Z,32.65
2023-03-26T12:48:15.913Z,31.49
2023-03-26T12:51:41.911Z,31.13
2023-03-26T12:54:53.693Z,30.87
2023-03-26T12:58:00.027Z,31.85
2023-03-26T13:01:36.625Z,31.27
2023-03-26T13:05:13.300Z,28.50
2023-03-26T13:08:36.895Z,28.14
2023-03-26T13:11:48.984Z,29.92
2023-03-26T13:15:00.866Z,29.61
2023-03-26T13:18:25.339Z,29.23
2023-03-26T13:21:46.777Z,28.64
2023-03-26T13:25:06.892Z,28.09
2023-03-26T13:28:26.671Z,28.79
2023-03-26T13:31:44.262Z,29.28
2023-03-26T13:35:09.580Z,28.95
2023-03-26T13:38:29.280Z,29.57
2023-03-26T13:41:47.261Z,29.79
2023-03-26T13:45:20.839Z,29.66
2023-03-26T13:48:28.488Z,28.99
2023-03-26T13:51:59.247Z,27.40
2023-03-26T13:55:01.716Z,27.61
2023-03-26T13:58:10.944Z,28.21
2023-03-26T14:01:19.557Z,29.43
2023-03-26T14:04:32.276Z,29.54
2023-03-26T14:07:43.118Z,30.81
2023-03-26T14:10:52.849Z,29.61
2023-03-26T14:14:04.210Z,28.68
2023-03-26T14:17:46.471Z,28.65
2023-03-26T14:21:17.140Z,27.99
2023-03-26T14:24:35.545Z,28.03
2023-03-26T14:27:51.056Z,30.10
2023-03-26T14:30:58.085Z,28.39
2023-03-26T14:34:16.172Z,29.11
2023-03-26T14:37:40.671Z,28.56
2023-03-26T14:41:10.985Z,28.17
2023-03-26T14:44:47.678Z,27.89
2023-03-26T14:48:19.584Z,27.46
2023-03-26T14:51:37.924Z,27.01
2023-03-26T14:54:44.738Z,25.36
2023-03-26T14:58:09.266Z,25.79
2023-03-26T15:01:20.913Z,26.04
2023-03-26T15:04:46.502Z,25.86
2023-03-26T15:08:19.941Z,26.16
2023-03-26T15:11:46.350Z,26.16
2023-03-26T15:15:07.146Z,26.86
2023-03-26T15:18:47.585Z,26.58
2023-03-26T15:22:26.041Z,27.50
2023-03-26T15:25:48.366Z,27.61
2023-03-26T15:28:56.864Z,28.23
2023-03-26T15:32:30.284Z,28.19
2023-03-26T15:35:44.369Z,28.92
2023-03-26T15:38:56.719Z,28.82
2023-03-26T15:42:17.840Z,29.29
2023-03-26T15:45:30.381Z,29.42
2023-03-26T15:48:37.458Z,29.56
2023-03-26T15:51:53.698Z,29.61
2023-03-26T15:55:31.151Z,30.04
2023-03-26T15:58:45.259Z,30.61
2023-03-26T16:02:12.155Z,31.64
2023-03-26T16:05:19.616Z,31.55
2023-03-26T16:08:38.746Z,31.51
2023-03-26T16:11:54.110Z,31.58
2023-03-26T16:15:07.542Z,31.77
2023-03-26T16:18:12.039Z,31.88
2023-03-26T16:21:36.534Z,32.35
2023-03-26T16:24:44.633Z,32.48
2023-03-26T16:27:47.394Z,32.93
2023-03-26T16:31:23.414Z,32.74
2023-03-26T16:34:49.805Z,32.88
2023-03-26T16:38:11.524Z,33.41
2023-03-26T16:41:29.809Z,33.37
2023-03-26T16:44:51.992Z,33.92
2023-03-26T16:48:09.653Z,33.81
2023-03-26T16:51:38.931Z,34.32
2023-03-26T16:54:47.382Z,33.53
2023-03-26T16:58:17.155Z,33.49
2023-03-26T17:01:57.621Z,33.43
2023-03-26T17:05:26.727Z,36.56
2023-03-26T17:08:53.371Z,35.58
2023-03-26T17:12:19.864Z,34.47
2023-03-26T17:15:42.312Z,35.01
2023-03-26T17:18:57.671Z,35.64
2023-03-26T17:22:18.622Z,35.93
2023-03-26T17:25:24.840Z,35.74
2023-03-26T17:28:47.008Z,35.44
2023-03-26T17:32:12.347Z,35.88
2023-03-26T17:35:15.545Z,36.23
2023-03-26T17:38:18.682Z,37.32
2023-03-26T17:41:56.468Z,36.40
2023-03-26T17:45:17.620Z,36.60
2023-03-26T17:48:23.959Z,36.93
2023-03-26T17:51:47.346Z,37.24
2023-03-26T17:54:53.287Z,37.07
2023-03-26T17:58:01.757Z,37.95
2023-03-26T18:01:34.777Z,36.32
2023-03-26T18:04:42.186Z,36.82
2023-03-26T18:07:47.971Z,36.77
2023-03-26T18:11:15.703Z,38.67
2023-03-26T18:14:24.348Z,38.18
2023-03-26T18:17:38.495Z,36.84
2023-03-26T18:20:43.889Z,39.73
2023-03-26T18:23:50.674Z,38.12
2023-03-26T18:27:01.743Z,40.98
2023-03-26T18:30:18.989Z,38.99
2023-03-26T18:33:21.560Z,37.61
2023-03-26T18:36:27.625Z,36.45
2023-03-26T18:39:30.122Z,36.84
2023-03-26T18:42:34.120Z,38.28
2023-03-26T18:45:39.410Z,38.27
2023-03-26T18:48:44.094Z,38.11
2023-03-26T18:51:56.729Z,37.54
2023-03-26T18:55:02.969Z,37.46
2023-03-26T18:58:30.114Z,37.79
2023-03-26T19:01:36.621Z,39.48
2023-03-26T19:04:41.765Z,37.35
2023-03-26T19:07:50.310Z,37.69
2023-03-26T19:10:54.656Z,38.25
2023-03-26T19:14:06.998Z,37.96
2023-03-26T19:17:11.802Z,38.09
2023-03-26T19:20:20.077Z,41.23
2023-03-26T19:23:28.732Z,40.34
2023-03-26T19:26:32.540Z,42.19
2023-03-26T19:29:36.552Z,43.01
2023-03-26T19:32:39.803Z,42.75
2023-03-26T19:35:44.100Z,41.77
2023-03-26T19:38:53.027Z,40.41
2023-03-26T19:41:55.710Z,40.71
2023-03-26T19:45:02.182Z,40.12
2023-03-26T19:48:14.989Z,43.23
2023-03-26T19:51:20.401Z,45.00
2023-03-26T19:54:23.053Z,43.11
2023-03-26T19:57:26.245Z,43.55
2023-03-26T20:00:28.765Z,41.60
2023-03-26T20:03:40.387Z,41.28
2023-03-26T20:06:44.297Z,40.88
2023-03-26T20:09:52.254Z,43.32
2023-03-26T20:12:55.631Z,42.59
2023-03-26T20:16:06.077Z,43.89
2023-03-26T20:19:11.128Z,44.18
2023-03-26T20:22:23.634Z,43.83
2023-03-26T20:25:34.150Z,42.82
2023-03-26T20:28:47.365Z,42.17
2023-03-26T20:31:51.269Z,44.52
2023-03-26T20:34:54.928Z,41.76
2023-03-26T20:37:57.590Z,40.41
2023-03-26T20:41:00.594Z,41.41
2023-03-26T20:44:05.057Z,44.10
2023-03-26T20:47:10.939Z,42.70
2023-03-26T20:50:15.679Z,42.18
2023-03-26T20:53:20.362Z,41.34
2023-03-26T20:56:23.569Z,40.38
2023-03-26T20:59:28.253Z,40.88
2023-03-26T21:02:31.012Z,41.11
2023-03-26T21:05:35.341Z,41.27
2023-03-26T21:08:38.343Z,41.85
2023-03-26T21:11:47.326Z,42.24
2023-03-26T21:14:50.127Z,44.59
2023-03-26T21:17:55.033Z,42.71
2023-03-26T21:21:32.118Z,43.37
2023-03-26T21:25:15.338Z,43.94
2023-03-26T21:28:42.863Z,43.45
2023-03-26T21:31:46.786Z,43.38
2023-03-26T21:34:58.589Z,43.65
2023-03-26T21:38:06.342Z,44.33
2023-03-26T21:41:20.816Z,45.52
2023-03-26T21:44:24.223Z,44.60
2023-03-26T21:47:27.173Z,45.36
2023-03-26T21:50:30.639Z,49.86
2023-03-26T21:53:35.538Z,50.54
2023-03-26T21:56:56.686Z,51.49
2023-03-26T22:00:23.686Z,52.91
2023-03-26T22:03:37.749Z,52.88
2023-03-26T22:06:54.775Z,53.01
2023-03-26T22:09:57.874Z,53.31
2023-03-26T22:13:00.447Z,54.32
2023-03-26T22:16:04.906Z,54.05
2023-03-26T22:19:08.612Z,54.31
2023-03-26T22:22:12.547Z,55.63
2023-03-26T22:25:17.753Z,55.07
2023-03-26T22:28:20.871Z,55.07
2023-03-26T22:31:27.179Z,55.45
2023-03-26T22:34:30.699Z,54.96
2023-03-26T22:37:35.708Z,57.34
2023-03-26T22:40:39.229Z,57.27
2023-03-26T22:43:41.750Z,59.46
2023-03-26T22:46:47.360Z,59.41
2023-03-26T22:49:49.893Z,60.01
2023-03-26T22:52:52.953Z,61.41
2023-03-26T22:55:55.515Z,62.67
2023-03-26T22:58:58.911Z,62.82
2023-03-26T23:02:01.575Z,62.66
2023-03-26T23:05:04.864Z,63.36
2023-03-26T23:08:07.875Z,64.32
2023-03-26T23:11:19.356Z,63.99
2023-03-26T23:14:22.261Z,64.90
2023-03-26T23:17:25.855Z,67.18
2023-03-26T23:20:29.999Z,68.05
2023-03-26T23:23:34.968Z,69.13
2023-03-26T23:26:49.443Z,69.57
2023-03-26T23:29:53.510Z,70.13
2023-03-26T23:32:57.304Z,70.11
2023-03-26T23:36:04.316Z,70.15
2023-03-26T23:39:11.003Z,70.28
2023-03-26T23:42:14.105Z,71.07
2023-03-26T23:45:16.651Z,72.42
2023-03-26T23:48:22.805Z,72.73
2023-03-26T23:51:25.619Z,73.02
2023-03-26T23:54:30.143Z,74.53
2023-03-26T23:57:33.024Z,75.20
